Time;durP1;ratioP1;P1;durP2;ratioP2;P2;SDS_P1;SDS_P2;PMS_P1;PMS_P2;Temp;Humidity;BMP_temperature;BMP_pressure;BME280_temperature;BME280_humidity;BME280_pressure;Samples;Min_cycle;Max_cycle;Signal;HPM_P1;HPM_P2
2024/03/06 00:01:16;;;;;;;;;;;18.20;59.80;;;;;;5041770;28;942;-72
2024/03/06 00:03:41;;;;;;;;;;;18.10;59.80;;;;;;5041652;28;1234;-72
2024/03/06 00:06:07;;;;;;;;;;;18.10;59.80;;;;;;5045127;28;872;-72
2024/03/06 00:08:32;;;;;;;;;;;18.10;59.80;;;;;;5042832;28;943;-72
2024/03/06 00:10:58;;;;;;;;;;;18.10;59.80;;;;;;5044858;28;864;-72
2024/03/06 00:13:24;;;;;;;;;;;18.10;59.80;;;;;;5042943;28;1494;-72
2024/03/06 00:15:49;;;;;;;;;;;18.10;59.80;;;;;;5040270;28;1914;-72
2024/03/06 00:18:14;;;;;;;;;;;18.10;59.80;;;;;;5043024;28;1650;-72
2024/03/06 00:20:42;;;;;;;;;;;18.10;59.90;;;;;;5038508;28;1320;-72
2024/03/06 00:23:07;;;;;;;;;;;18.10;59.80;;;;;;5041017;28;1579;-72
2024/03/06 00:25:34;;;;;;;;;;;18.10;59.90;;;;;;5042415;28;879;-72
2024/03/06 00:27:59;;;;;;;;;;;18.10;59.90;;;;;;5041643;28;1219;-72
2024/03/06 00:30:25;;;;;;;;;;;18.10;59.90;;;;;;5042947;28;1779;-72
2024/03/06 00:32:51;;;;;;;;;;;18.10;59.90;;;;;;5037109;28;1496;-71
2024/03/06 00:35:16;;;;;;;;;;;18.10;59.90;;;;;;5043304;28;1961;-71
2024/03/06 00:37:42;;;;;;;;;;;18.10;59.90;;;;;;5037961;28;1572;-71
2024/03/06 00:40:08;;;;;;;;;;;18.10;60.00;;;;;;5041977;28;1285;-71
2024/03/06 00:42:35;;;;;;;;;;;18.10;60.00;;;;;;5041724;28;1514;-71
2024/03/06 00:45:02;;;;;;;;;;;18.10;60.00;;;;;;5039722;28;1285;-71
2024/03/06 00:47:27;;;;;;;;;;;18.10;60.00;;;;;;5040527;28;1138;-71
2024/03/06 00:49:53;;;;;;;;;;;18.10;60.00;;;;;;5040417;28;1482;-71
2024/03/06 00:52:18;;;;;;;;;;;18.10;60.00;;;;;;5039000;28;1248;-71
2024/03/06 00:54:44;;;;;;;;;;;18.10;60.10;;;;;;5042057;28;1955;-71
2024/03/06 00:57:09;;;;;;;;;;;18.10;60.10;;;;;;5041046;28;1242;-71
2024/03/06 00:59:35;;;;;;;;;;;18.10;60.10;;;;;;5041645;28;1335;-71
2024/03/06 01:02:00;;;;;;;;;;;18.10;60.10;;;;;;5040306;28;1347;-71
2024/03/06 01:04:26;;;;;;;;;;;18.10;60.20;;;;;;5040424;28;1800;-71
2024/03/06 01:06:51;;;;;;;;;;;18.10;60.20;;;;;;5037493;28;1169;-70
2024/03/06 01:09:17;;;;;;;;;;;18.10;60.20;;;;;;5040625;28;1262;-71
2024/03/06 01:11:42;;;;;;;;;;;18.10;60.20;;;;;;5040143;28;1266;-71
2024/03/06 01:14:08;;;;;;;;;;;18.10;60.20;;;;;;5046471;28;1312;-71
2024/03/06 01:16:33;;;;;;;;;;;18.10;60.20;;;;;;5037186;28;1945;-71
2024/03/06 01:18:59;;;;;;;;;;;18.10;60.20;;;;;;5041378;28;1364;-71
2024/03/06 01:21:24;;;;;;;;;;;18.10;60.20;;;;;;5039853;28;1499;-71
2024/03/06 01:23:50;;;;;;;;;;;18.10;60.30;;;;;;5040587;28;1241;-71
2024/03/06 01:26:16;;;;;;;;;;;18.10;60.20;;;;;;5040551;28;1308;-72
2024/03/06 01:28:42;;;;;;;;;;;18.10;60.30;;;;;;5043572;28;1252;-72
2024/03/06 01:31:07;;;;;;;;;;;18.10;60.50;;;;;;5041069;28;1255;-72
2024/03/06 01:33:32;;;;;;;;;;;18.10;60.30;;;;;;5040880;28;1367;-73
2024/03/06 01:35:58;;;;;;;;;;;18.10;60.30;;;;;;5040691;28;1957;-72
2024/03/06 01:38:23;;;;;;;;;;;18.10;60.30;;;;;;5038393;28;1400;-72
2024/03/06 01:40:49;;;;;;;;;;;18.10;60.30;;;;;;5038706;28;1339;-72
2024/03/06 01:43:21;;;;;;;;;;;18.10;60.30;;;;;;5038802;28;1572;-72
2024/03/06 01:45:47;;;;;;;;;;;18.10;60.40;;;;;;5036185;28;1330;-72
2024/03/06 01:48:14;;;;;;;;;;;18.10;60.40;;;;;;5039916;28;1065;-72
2024/03/06 01:50:39;;;;;;;;;;;18.10;60.40;;;;;;5039335;28;1295;-72
2024/03/06 01:53:05;;;;;;;;;;;18.00;60.30;;;;;;5038940;28;1629;-72
2024/03/06 01:55:30;;;;;;;;;;;18.00;60.40;;;;;;5038228;28;1898;-72
2024/03/06 01:57:56;;;;;;;;;;;18.10;60.40;;;;;;5039786;28;1247;-72
2024/03/06 02:00:21;;;;;;;;;;;18.00;60.40;;;;;;5038426;28;1460;-72
2024/03/06 02:02:47;;;;;;;;;;;18.00;60.40;;;;;;5070960;28;1366;-72
2024/03/06 02:05:12;;;;;;;;;;;18.00;60.40;;;;;;5041110;28;1358;-72
2024/03/06 02:07:38;;;;;;;;;;;18.00;60.40;;;;;;5040893;28;1243;-72
2024/03/06 02:10:04;;;;;;;;;;;18.00;60.40;;;;;;5038258;28;1410;-72
2024/03/06 02:12:30;;;;;;;;;;;18.00;60.50;;;;;;5042804;28;1678;-72
2024/03/06 02:14:55;;;;;;;;;;;18.00;60.50;;;;;;5046330;28;1963;-72
2024/03/06 02:17:21;;;;;;;;;;;18.00;60.50;;;;;;5042948;28;1337;-72
2024/03/06 02:19:47;;;;;;;;;;;18.10;60.60;;;;;;5041879;28;1221;-72
2024/03/06 02:22:12;;;;;;;;;;;18.00;60.50;;;;;;5046777;28;1548;-72
2024/03/06 02:24:38;;;;;;;;;;;18.00;60.50;;;;;;5047876;28;1452;-72
2024/03/06 02:27:06;;;;;;;;;;;18.00;60.50;;;;;;5042701;28;1195;-72
2024/03/06 02:29:32;;;;;;;;;;;18.00;60.50;;;;;;5048365;28;1096;-72
2024/03/06 02:31:58;;;;;;;;;;;18.00;60.60;;;;;;5046039;28;1525;-72
2024/03/06 02:34:24;;;;;;;;;;;18.00;60.60;;;;;;5047359;28;1002;-72
2024/03/06 02:36:50;;;;;;;;;;;18.00;60.60;;;;;;5045641;28;1977;-72
2024/03/06 02:39:16;;;;;;;;;;;18.00;60.60;;;;;;5044620;28;982;-72
2024/03/06 02:41:41;;;;;;;;;;;18.00;60.60;;;;;;5047759;28;1272;-72
2024/03/06 02:44:07;;;;;;;;;;;18.00;60.60;;;;;;5045361;28;1218;-72
2024/03/06 02:46:32;;;;;;;;;;;18.00;60.60;;;;;;5048065;28;1322;-72
2024/03/06 02:48:58;;;;;;;;;;;18.00;60.60;;;;;;5047289;28;1479;-72
2024/03/06 02:51:23;;;;;;;;;;;18.00;60.70;;;;;;5046008;28;1495;-72
2024/03/06 02:53:49;;;;;;;;;;;18.00;60.70;;;;;;5046357;28;1351;-72
2024/03/06 02:56:20;;;;;;;;;;;18.00;60.70;;;;;;5047288;28;1985;-72
2024/03/06 02:58:46;;;;;;;;;;;18.00;60.70;;;;;;5046402;28;1544;-72
2024/03/06 03:01:12;;;;;;;;;;;18.00;60.70;;;;;;5047589;28;1496;-71
2024/03/06 03:03:40;;;;;;;;;;;18.00;60.70;;;;;;5045987;28;1531;-72
2024/03/06 03:06:05;;;;;;;;;;;18.00;60.70;;;;;;5044445;28;1534;-72
2024/03/06 03:08:31;;;;;;;;;;;18.00;60.70;;;;;;5046668;28;1851;-72
2024/03/06 03:10:57;;;;;;;;;;;18.00;60.70;;;;;;5044874;28;1292;-72
2024/03/06 03:13:22;;;;;;;;;;;18.00;60.80;;;;;;5046446;28;1387;-72
2024/03/06 03:15:48;;;;;;;;;;;18.00;60.80;;;;;;5049292;28;1902;-72
2024/03/06 03:18:13;;;;;;;;;;;18.00;60.80;;;;;;5047912;28;951;-72
2024/03/06 03:20:39;;;;;;;;;;;18.00;60.80;;;;;;5078450;28;1067;-72
2024/03/06 03:23:06;;;;;;;;;;;18.00;60.80;;;;;;5047095;28;1390;-72
2024/03/06 03:25:31;;;;;;;;;;;18.00;60.90;;;;;;5046838;28;1753;-72
2024/03/06 03:27:57;;;;;;;;;;;18.00;60.80;;;;;;5045618;28;1436;-72
2024/03/06 03:30:22;;;;;;;;;;;18.00;60.90;;;;;;5044014;28;1449;-72
2024/03/06 03:32:48;;;;;;;;;;;18.00;60.80;;;;;;5041733;28;1421;-72
2024/03/06 03:35:14;;;;;;;;;;;18.00;60.90;;;;;;5039457;28;1969;-72
2024/03/06 03:37:39;;;;;;;;;;;18.00;60.90;;;;;;5074320;28;1510;-72
2024/03/06 03:40:06;;;;;;;;;;;18.00;60.90;;;;;;5040128;28;1313;-72
2024/03/06 03:42:32;;;;;;;;;;;18.00;60.90;;;;;;5044154;28;1252;-72
2024/03/06 03:44:57;;;;;;;;;;;18.00;60.90;;;;;;5040653;28;1653;-72
2024/03/06 03:47:23;;;;;;;;;;;18.00;60.90;;;;;;5040276;28;1254;-72
2024/03/06 03:49:48;;;;;;;;;;;17.90;60.90;;;;;;5044161;28;1470;-72
2024/03/06 03:52:14;;;;;;;;;;;18.00;60.90;;;;;;5041105;28;1398;-71
2024/03/06 03:54:40;;;;;;;;;;;18.00;60.90;;;;;;5038941;28;1456;-72
2024/03/06 03:57:06;;;;;;;;;;;17.90;60.90;;;;;;5047606;28;1890;-72
2024/03/06 03:59:32;;;;;;;;;;;17.90;60.90;;;;;;5046194;28;1612;-72
2024/03/06 04:01:58;;;;;;;;;;;18.00;61.00;;;;;;5041333;28;1296;-72
2024/03/06 04:04:23;;;;;;;;;;;17.90;61.00;;;;;;5041526;28;1429;-72
2024/03/06 04:06:49;;;;;;;;;;;17.90;61.00;;;;;;5041498;28;1320;-72
2024/03/06 04:09:14;;;;;;;;;;;18.00;61.00;;;;;;5042986;28;1402;-72
2024/03/06 04:11:40;;;;;;;;;;;18.00;61.00;;;;;;5042531;28;1304;-72
2024/03/06 04:14:06;;;;;;;;;;;18.00;61.00;;;;;;5041216;28;1129;-72
2024/03/06 04:16:32;;;;;;;;;;;17.90;61.00;;;;;;5041488;28;1906;-72
2024/03/06 04:18:57;;;;;;;;;;;17.90;61.00;;;;;;5042195;28;1556;-72
2024/03/06 04:21:23;;;;;;;;;;;18.00;61.10;;;;;;5042797;28;1849;-72
2024/03/06 04:23:48;;;;;;;;;;;18.00;61.10;;;;;;5039011;28;1255;-72
2024/03/06 04:26:14;;;;;;;;;;;18.00;61.10;;;;;;5040656;28;1537;-72
2024/03/06 04:28:39;;;;;;;;;;;18.00;61.10;;;;;;5076196;28;1596;-72
2024/03/06 04:31:05;;;;;;;;;;;18.00;61.10;;;;;;5040147;28;1260;-72
2024/03/06 04:33:30;;;;;;;;;;;18.00;61.10;;;;;;5041665;28;1300;-72
2024/03/06 04:35:56;;;;;;;;;;;17.90;61.10;;;;;;5039229;28;1914;-72
2024/03/06 04:38:21;;;;;;;;;;;17.90;61.90;;;;;;5043956;28;1229;-72
2024/03/06 04:40:46;;;;;;;;;;;17.90;61.10;;;;;;5044063;28;1462;-72
2024/03/06 04:43:12;;;;;;;;;;;17.90;61.10;;;;;;5041697;28;5183;-72
2024/03/06 04:45:37;;;;;;;;;;;18.00;61.90;;;;;;5044201;28;1264;-72
2024/03/06 04:48:03;;;;;;;;;;;17.90;61.10;;;;;;5041577;28;1293;-72
2024/03/06 04:50:28;;;;;;;;;;;18.00;61.20;;;;;;5041590;28;1572;-72
2024/03/06 04:52:54;;;;;;;;;;;17.90;61.20;;;;;;5040864;28;1386;-72
2024/03/06 04:55:22;;;;;;;;;;;17.90;61.20;;;;;;5040729;28;2086;-72
2024/03/06 04:57:48;;;;;;;;;;;17.90;61.20;;;;;;5042459;28;1602;-72
2024/03/06 05:00:13;;;;;;;;;;;17.90;61.20;;;;;;5047974;28;1310;-72
2024/03/06 05:02:39;;;;;;;;;;;17.90;61.20;;;;;;5040328;28;1335;-72
2024/03/06 05:05:04;;;;;;;;;;;17.90;61.20;;;;;;5038710;28;1061;-72
2024/03/06 05:07:30;;;;;;;;;;;17.90;61.20;;;;;;5040504;28;1313;-72
2024/03/06 05:09:57;;;;;;;;;;;17.90;61.20;;;;;;5037316;28;1530;-72
2024/03/06 05:12:25;;;;;;;;;;;17.90;61.20;;;;;;5039501;28;1619;-72
2024/03/06 05:14:51;;;;;;;;;;;17.90;61.10;;;;;;5040942;28;1300;-72
2024/03/06 05:17:17;;;;;;;;;;;18.00;61.10;;;;;;5048106;28;1914;-72
2024/03/06 05:19:43;;;;;;;;;;;18.00;61.10;;;;;;5044054;28;1394;-72
2024/03/06 05:22:08;;;;;;;;;;;18.00;61.00;;;;;;5042206;28;1201;-72
2024/03/06 05:24:34;;;;;;;;;;;18.00;60.90;;;;;;5038061;28;1153;-72
2024/03/06 05:26:59;;;;;;;;;;;18.10;61.60;;;;;;5040398;28;1077;-72
2024/03/06 05:29:25;;;;;;;;;;;18.10;60.70;;;;;;5040143;28;882;-72
2024/03/06 05:31:50;;;;;;;;;;;18.10;60.60;;;;;;5035915;28;1304;-72
2024/03/06 05:34:15;;;;;;;;;;;18.10;60.50;;;;;;5040269;28;1138;-72
2024/03/06 05:36:41;;;;;;;;;;;18.20;60.40;;;;;;5038238;28;1902;-72
2024/03/06 05:39:07;;;;;;;;;;;18.20;60.40;;;;;;5039862;28;1608;-72
2024/03/06 05:41:32;;;;;;;;;;;18.20;60.20;;;;;;5043843;28;1292;-72
2024/03/06 05:43:58;;;;;;;;;;;18.20;60.20;;;;;;5041363;28;1359;-72
2024/03/06 05:46:23;;;;;;;;;;;18.30;60.10;;;;;;5038456;28;1446;-72
2024/03/06 05:48:50;;;;;;;;;;;18.30;60.00;;;;;;5039921;28;1565;-72
2024/03/06 05:51:15;;;;;;;;;;;18.30;60.00;;;;;;5038355;28;1234;-72
2024/03/06 05:53:42;;;;;;;;;;;18.30;60.00;;;;;;5037635;28;1602;-72
2024/03/06 05:56:07;;;;;;;;;;;18.30;59.90;;;;;;5038456;28;1906;-72
2024/03/06 05:58:34;;;;;;;;;;;18.40;59.90;;;;;;5038596;28;1455;-72
2024/03/06 06:01:00;;;;;;;;;;;18.40;59.90;;;;;;5039845;28;1525;-72
2024/03/06 06:03:25;;;;;;;;;;;18.40;59.90;;;;;;5039031;28;1346;-72
2024/03/06 06:05:51;;;;;;;;;;;18.40;59.90;;;;;;5039269;28;1351;-72
2024/03/06 06:08:16;;;;;;;;;;;18.40;59.80;;;;;;5041232;28;1603;-72
2024/03/06 06:10:41;;;;;;;;;;;18.40;59.80;;;;;;5056467;28;1303;-72
2024/03/06 06:13:07;;;;;;;;;;;18.40;59.80;;;;;;5042901;28;1293;-72
2024/03/06 06:15:32;;;;;;;;;;;18.40;59.70;;;;;;5053883;28;1906;-72
2024/03/06 06:17:58;;;;;;;;;;;18.40;59.70;;;;;;5038084;28;1269;-71
2024/03/06 06:20:24;;;;;;;;;;;18.40;59.70;;;;;;5038835;28;1479;-71
2024/03/06 06:22:49;;;;;;;;;;;18.40;59.70;;;;;;5039382;28;1276;-71
2024/03/06 06:25:16;;;;;;;;;;;18.40;59.70;;;;;;5041351;28;1378;-72
2024/03/06 06:27:41;;;;;;;;;;;18.40;59.70;;;;;;5036309;28;1734;-72
2024/03/06 06:30:11;;;;;;;;;;;18.40;59.70;;;;;;5039672;28;1196;-71
2024/03/06 06:32:40;;;;;;;;;;;18.40;59.70;;;;;;5037244;28;1445;-71
2024/03/06 06:35:06;;;;;;;;;;;18.40;59.70;;;;;;5037353;28;1930;-72
2024/03/06 06:37:31;;;;;;;;;;;18.40;59.70;;;;;;5040506;28;1421;-71
2024/03/06 06:39:57;;;;;;;;;;;18.40;59.70;;;;;;5036913;28;1288;-71
2024/03/06 06:42:22;;;;;;;;;;;18.40;59.70;;;;;;5037454;28;1373;-71
2024/03/06 06:44:48;;;;;;;;;;;18.40;59.80;;;;;;5040314;28;1347;-71
2024/03/06 06:47:13;;;;;;;;;;;18.40;59.80;;;;;;5037244;28;1427;-71
2024/03/06 06:49:38;;;;;;;;;;;18.40;59.80;;;;;;5038081;28;1148;-70
2024/03/06 06:52:04;;;;;;;;;;;18.40;59.40;;;;;;5044136;28;1300;-70
2024/03/06 06:54:30;;;;;;;;;;;18.40;57.90;;;;;;5039845;28;1756;-71
2024/03/06 06:56:55;;;;;;;;;;;18.30;56.00;;;;;;5038603;28;1940;-71
2024/03/06 06:59:22;;;;;;;;;;;18.30;55.90;;;;;;5035529;28;2249;-69
2024/03/06 07:01:48;;;;;;;;;;;18.30;56.20;;;;;;5033837;28;1813;-69
2024/03/06 07:04:16;;;;;;;;;;;18.30;55.90;;;;;;5039295;28;1455;-69
2024/03/06 07:06:42;;;;;;;;;;;18.30;55.90;;;;;;5039199;28;1479;-68
2024/03/06 07:09:09;;;;;;;;;;;18.30;57.40;;;;;;5042438;28;1534;-69
2024/03/06 07:11:34;;;;;;;;;;;18.40;57.70;;;;;;5043531;28;1505;-69
2024/03/06 07:14:00;;;;;;;;;;;18.40;57.60;;;;;;5041048;28;1622;-68
2024/03/06 07:16:25;;;;;;;;;;;18.50;57.60;;;;;;5049681;28;1906;-67
2024/03/06 07:18:51;;;;;;;;;;;18.60;57.60;;;;;;5040679;28;1272;-70
2024/03/06 07:21:17;;;;;;;;;;;18.70;57.60;;;;;;5043812;28;1685;-69
2024/03/06 07:23:43;;;;;;;;;;;18.80;57.60;;;;;;5038308;28;1548;-68
2024/03/06 07:26:08;;;;;;;;;;;18.90;57.40;;;;;;5043383;28;1512;-70
2024/03/06 07:28:34;;;;;;;;;;;19.10;57.40;;;;;;5040384;28;1448;-70
2024/03/06 07:30:59;;;;;;;;;;;19.20;57.30;;;;;;5041818;28;1363;-69
2024/03/06 07:33:25;;;;;;;;;;;19.30;57.10;;;;;;5044890;28;1430;-69
2024/03/06 07:35:50;;;;;;;;;;;19.40;57.10;;;;;;5041287;28;1961;-68
2024/03/06 07:38:16;;;;;;;;;;;19.40;56.90;;;;;;5039947;28;1353;-69
2024/03/06 07:40:41;;;;;;;;;;;19.50;56.80;;;;;;5041954;28;1531;-68
2024/03/06 07:43:07;;;;;;;;;;;19.60;56.80;;;;;;5038627;28;1252;-68
2024/03/06 07:45:32;;;;;;;;;;;19.60;56.60;;;;;;5042995;28;1056;-68
2024/03/06 07:47:57;;;;;;;;;;;19.70;56.60;;;;;;5041933;28;1327;-69
2024/03/06 07:50:23;;;;;;;;;;;19.80;56.50;;;;;;5041764;28;1265;-69
2024/03/06 07:52:48;;;;;;;;;;;19.80;56.40;;;;;;5041581;28;1572;-69
2024/03/06 07:55:14;;;;;;;;;;;19.80;56.40;;;;;;5040108;28;1914;-69
2024/03/06 07:57:39;;;;;;;;;;;19.90;56.30;;;;;;5043079;28;1380;-69
2024/03/06 08:00:14;;;;;;;;;;;19.90;56.30;;;;;;5043302;28;1295;-70
2024/03/06 08:02:49;;;;;;;;;;;20.00;56.20;;;;;;5042419;28;1371;-71
2024/03/06 08:05:15;;;;;;;;;;;20.00;56.20;;;;;;5038657;28;1364;-70
2024/03/06 08:07:42;;;;;;;;;;;20.10;56.20;;;;;;5026480;28;1478;-71
2024/03/06 08:10:13;;;;;;;;;;;20.10;56.20;;;;;;5043633;28;1405;-72
2024/03/06 08:12:40;;;;;;;;;;;20.10;56.30;;;;;;5041535;28;1300;-70
2024/03/06 08:15:09;;;;;;;;;;;20.20;56.40;;;;;;5025563;28;2067;-71
2024/03/06 08:17:34;;;;;;;;;;;20.20;56.50;;;;;;5041668;28;1566;-71
2024/03/06 08:20:00;;;;;;;;;;;20.20;56.60;;;;;;5042009;28;1181;-72
2024/03/06 08:22:27;;;;;;;;;;;20.30;56.70;;;;;;5044881;28;1577;-70
2024/03/06 08:24:52;;;;;;;;;;;20.30;56.80;;;;;;5043356;28;1456;-71
2024/03/06 08:27:19;;;;;;;;;;;20.30;56.80;;;;;;5041337;28;2148;-72
2024/03/06 08:29:44;;;;;;;;;;;20.40;57.00;;;;;;5043351;28;1109;-72
2024/03/06 08:32:10;;;;;;;;;;;20.40;57.00;;;;;;5043011;28;1358;-70
2024/03/06 08:34:35;;;;;;;;;;;20.40;57.10;;;;;;5042891;28;1322;-70
2024/03/06 08:37:00;;;;;;;;;;;20.40;57.10;;;;;;5040741;28;1910;-71
2024/03/06 08:39:26;;;;;;;;;;;20.50;57.10;;;;;;5041515;28;1398;-71
2024/03/06 08:41:52;;;;;;;;;;;20.50;57.10;;;;;;5041756;28;1352;-71
2024/03/06 08:44:18;;;;;;;;;;;20.50;57.10;;;;;;5038689;28;1540;-71
2024/03/06 08:46:43;;;;;;;;;;;20.50;57.20;;;;;;5023440;28;1333;-71
2024/03/06 08:49:09;;;;;;;;;;;20.50;57.20;;;;;;5042618;28;1417;-71
2024/03/06 08:51:34;;;;;;;;;;;20.60;57.30;;;;;;5040726;28;1445;-71
2024/03/06 08:53:59;;;;;;;;;;;20.60;57.30;;;;;;5041363;28;1241;-71
2024/03/06 08:56:25;;;;;;;;;;;20.60;57.30;;;;;;5040710;28;1898;-71
2024/03/06 08:58:51;;;;;;;;;;;20.60;57.30;;;;;;5039225;28;1557;-71
2024/03/06 09:01:16;;;;;;;;;;;20.60;57.40;;;;;;5041862;28;1462;-71
2024/03/06 09:03:42;;;;;;;;;;;20.70;57.50;;;;;;5039213;28;1595;-71
2024/03/06 09:06:07;;;;;;;;;;;20.60;57.50;;;;;;5039285;28;1620;-70
2024/03/06 09:08:33;;;;;;;;;;;20.70;57.50;;;;;;5037663;28;1620;-71
2024/03/06 09:10:58;;;;;;;;;;;20.70;57.50;;;;;;5039090;28;1360;-71
2024/03/06 09:13:25;;;;;;;;;;;20.70;57.60;;;;;;5041215;28;1510;-71
2024/03/06 09:15:50;;;;;;;;;;;20.70;57.60;;;;;;5036546;28;1910;-71
2024/03/06 09:18:16;;;;;;;;;;;20.70;57.70;;;;;;5054476;28;1349;-71
2024/03/06 09:20:43;;;;;;;;;;;20.70;57.80;;;;;;5035458;28;1384;-71
2024/03/06 09:23:08;;;;;;;;;;;20.70;57.90;;;;;;5067562;28;1487;-71
2024/03/06 09:25:34;;;;;;;;;;;20.70;57.90;;;;;;5038385;28;1536;-71
2024/03/06 09:28:00;;;;;;;;;;;20.80;58.00;;;;;;5039479;28;1641;-71
2024/03/06 09:30:27;;;;;;;;;;;20.80;58.00;;;;;;5037124;28;1648;-71
2024/03/06 09:32:53;;;;;;;;;;;20.80;58.10;;;;;;5040462;28;1335;-71
2024/03/06 09:35:19;;;;;;;;;;;20.80;58.20;;;;;;5040160;28;1969;-71
2024/03/06 09:37:46;;;;;;;;;;;20.80;58.20;;;;;;5039326;28;1431;-72
2024/03/06 09:40:11;;;;;;;;;;;20.80;58.30;;;;;;5037965;28;1625;-72
2024/03/06 09:42:37;;;;;;;;;;;20.80;58.30;;;;;;5059236;28;1759;-72
2024/03/06 09:45:02;;;;;;;;;;;20.70;58.30;;;;;;5037142;28;1464;-72
2024/03/06 09:47:28;;;;;;;;;;;20.70;58.40;;;;;;5037088;28;1419;-72
2024/03/06 09:49:55;;;;;;;;;;;20.70;58.50;;;;;;5037831;28;1476;-70
2024/03/06 09:52:21;;;;;;;;;;;20.70;59.40;;;;;;5038504;28;2068;-70
2024/03/06 09:54:47;;;;;;;;;;;20.70;58.90;;;;;;5034259;28;2185;-70
2024/03/06 09:57:15;;;;;;;;;;;20.70;58.90;;;;;;5037147;28;2111;-70
2024/03/06 09:59:43;;;;;;;;;;;20.70;58.90;;;;;;5054559;28;2005;-70
2024/03/06 10:02:13;;;;;;;;;;;20.60;58.90;;;;;;5037433;28;1442;-71
2024/03/06 10:04:38;;;;;;;;;;;20.60;60.00;;;;;;5037643;28;1631;-71
2024/03/06 10:07:04;;;;;;;;;;;20.60;59.30;;;;;;5039501;28;1409;-71
2024/03/06 10:09:32;;;;;;;;;;;20.60;59.40;;;;;;5038254;28;1253;-71
2024/03/06 10:11:58;;;;;;;;;;;20.60;59.40;;;;;;5025504;28;1357;-71
2024/03/06 10:14:23;;;;;;;;;;;20.50;59.40;;;;;;5038584;28;1578;-71
2024/03/06 10:16:52;;;;;;;;;;;20.50;59.50;;;;;;5038482;28;1987;-72
2024/03/06 10:19:18;;;;;;;;;;;20.50;59.60;;;;;;5039064;28;1495;-71
2024/03/06 10:21:45;;;;;;;;;;;20.50;59.80;;;;;;5023507;28;1502;-70
2024/03/06 10:24:11;;;;;;;;;;;20.50;59.90;;;;;;5040873;28;1589;-71
2024/03/06 10:26:36;;;;;;;;;;;20.40;60.30;;;;;;5037949;28;1823;-71
2024/03/06 10:29:02;;;;;;;;;;;20.40;60.30;;;;;;5046065;28;1378;-71
2024/03/06 10:31:30;;;;;;;;;;;20.40;60.40;;;;;;5038011;28;1395;-71
2024/03/06 10:33:55;;;;;;;;;;;20.40;60.50;;;;;;5040234;28;1394;-71
2024/03/06 10:36:22;;;;;;;;;;;20.40;61.30;;;;;;5046946;28;1902;-71
2024/03/06 10:38:48;;;;;;;;;;;20.30;60.50;;;;;;5040232;28;1376;-70
2024/03/06 10:41:14;;;;;;;;;;;20.30;60.60;;;;;;5038088;28;1442;-71
2024/03/06 10:43:39;;;;;;;;;;;20.30;60.80;;;;;;5051200;28;1624;-71
2024/03/06 10:46:06;;;;;;;;;;;20.30;60.80;;;;;;5050706;28;1577;-71
2024/03/06 10:48:31;;;;;;;;;;;20.30;60.90;;;;;;5044018;28;1639;-70
2024/03/06 10:50:57;;;;;;;;;;;20.20;61.10;;;;;;5040044;28;1247;-71
2024/03/06 10:53:23;;;;;;;;;;;20.20;61.20;;;;;;5040248;28;1843;-71
2024/03/06 10:55:48;;;;;;;;;;;20.20;61.30;;;;;;5039961;28;1922;-71
2024/03/06 10:58:14;;;;;;;;;;;20.20;61.40;;;;;;5040685;28;2659;-71
2024/03/06 11:00:46;;;;;;;;;;;20.20;61.70;;;;;;5042274;28;2112;-71
2024/03/06 11:03:14;;;;;;;;;;;20.10;61.60;;;;;;5043139;28;1352;-70
2024/03/06 11:05:40;;;;;;;;;;;20.10;61.60;;;;;;5038336;28;1303;-70
2024/03/06 11:08:09;;;;;;;;;;;20.10;61.80;;;;;;5040755;28;1354;-71
2024/03/06 11:10:35;;;;;;;;;;;20.10;62.00;;;;;;5039479;28;1782;-72
2024/03/06 11:13:01;;;;;;;;;;;20.10;62.00;;;;;;5040019;28;1591;-71
2024/03/06 11:15:27;;;;;;;;;;;20.10;62.10;;;;;;5049803;28;1969;-72
2024/03/06 11:17:54;;;;;;;;;;;20.00;62.10;;;;;;5046711;28;1438;-73
2024/03/06 11:20:21;;;;;;;;;;;20.00;62.20;;;;;;5042548;28;1125;-73
2024/03/06 11:22:59;;;;;;;;;;;20.00;62.20;;;;;;5042458;28;1288;-71
2024/03/06 11:25:55;;;;;;;;;;;20.00;62.30;;;;;;5043471;28;1593;-72
2024/03/06 11:28:30;;;;;;;;;;;20.00;62.40;;;;;;5042457;28;1536;-72
2024/03/06 11:30:55;;;;;;;;;;;19.90;62.40;;;;;;5038123;28;1561;-71
2024/03/06 11:33:21;;;;;;;;;;;19.90;62.50;;;;;;5044233;28;1276;-73
2024/03/06 11:36:05;;;;;;;;;;;19.90;62.70;;;;;;5046690;28;1894;-72
2024/03/06 11:38:30;;;;;;;;;;;19.90;62.90;;;;;;5056375;28;1709;-72
2024/03/06 11:40:56;;;;;;;;;;;19.90;63.00;;;;;;5039961;28;1415;-72
2024/03/06 11:43:26;;;;;;;;;;;19.90;63.00;;;;;;5032928;28;1373;-71
2024/03/06 11:45:51;;;;;;;;;;;19.90;63.10;;;;;;5041206;28;1264;-72
2024/03/06 11:48:17;;;;;;;;;;;19.90;63.10;;;;;;5040437;28;1250;-72
2024/03/06 11:50:43;;;;;;;;;;;19.80;63.20;;;;;;5046679;28;1580;-72
2024/03/06 11:53:08;;;;;;;;;;;19.80;63.20;;;;;;5042723;28;1535;-72
2024/03/06 11:55:34;;;;;;;;;;;19.80;63.20;;;;;;5040548;28;1997;-73
2024/03/06 11:57:59;;;;;;;;;;;19.80;63.30;;;;;;5048955;28;1387;-73
2024/03/06 12:00:25;;;;;;;;;;;19.80;63.30;;;;;;5041558;28;1359;-75
2024/03/06 12:02:51;;;;;;;;;;;19.80;63.40;;;;;;5040402;28;1424;-72
2024/03/06 12:05:17;;;;;;;;;;;19.80;63.40;;;;;;5040474;28;1942;-72
2024/03/06 12:07:49;;;;;;;;;;;19.80;63.40;;;;;;5040862;28;1520;-71
2024/03/06 12:10:15;;;;;;;;;;;19.80;63.50;;;;;;5042437;28;1690;-71
2024/03/06 12:12:41;;;;;;;;;;;19.80;63.50;;;;;;5043632;28;1477;-71
2024/03/06 12:15:09;;;;;;;;;;;19.80;63.50;;;;;;5037120;28;1534;-72
2024/03/06 12:17:46;;;;;;;;;;;19.80;63.50;;;;;;5045406;28;1492;-72
2024/03/06 12:20:14;;;;;;;;;;;19.80;63.40;;;;;;5040921;28;1216;-72
2024/03/06 12:22:43;;;;;;;;;;;19.80;63.40;;;;;;5039242;28;1700;-72
2024/03/06 12:25:09;;;;;;;;;;;19.80;63.20;;;;;;5039775;28;1550;-73
2024/03/06 12:27:34;;;;;;;;;;;19.80;63.10;;;;;;5040441;28;1321;-72
2024/03/06 12:30:00;;;;;;;;;;;19.90;63.20;;;;;;5040390;28;1221;-73
2024/03/06 12:32:29;;;;;;;;;;;19.90;63.10;;;;;;5039043;28;1385;-72
2024/03/06 12:35:00;;;;;;;;;;;19.90;63.10;;;;;;5040963;28;1642;-73
2024/03/06 12:37:32;;;;;;;;;;;19.90;63.00;;;;;;5055368;28;2001;-72
2024/03/06 12:39:58;;;;;;;;;;;20.00;63.00;;;;;;5056001;28;1253;-72
2024/03/06 12:42:24;;;;;;;;;;;20.00;62.90;;;;;;5039310;28;1300;-72
2024/03/06 12:44:50;;;;;;;;;;;20.00;62.90;;;;;;5040949;28;1418;-72
2024/03/06 12:47:15;;;;;;;;;;;20.00;62.80;;;;;;5038951;28;1575;-72
2024/03/06 12:49:41;;;;;;;;;;;20.00;63.10;;;;;;5036836;28;1676;-73
2024/03/06 12:52:06;;;;;;;;;;;20.00;63.20;;;;;;5030753;28;1478;-72
2024/03/06 12:54:32;;;;;;;;;;;20.00;63.20;;;;;;5054058;28;1494;-72
2024/03/06 12:56:57;;;;;;;;;;;20.00;63.30;;;;;;5037536;28;1906;-73
2024/03/06 12:59:23;;;;;;;;;;;20.00;63.20;;;;;;5040965;28;1430;-72
2024/03/06 13:01:48;;;;;;;;;;;20.00;63.10;;;;;;5035981;28;1521;-71
2024/03/06 13:04:14;;;;;;;;;;;20.10;63.10;;;;;;5036699;28;1604;-72
2024/03/06 13:06:42;;;;;;;;;;;20.10;62.10;;;;;;5038221;28;1450;-72
2024/03/06 13:09:07;;;;;;;;;;;20.00;57.50;;;;;;5037051;28;1489;-73
2024/03/06 13:11:33;;;;;;;;;;;19.90;55.60;;;;;;5038745;28;1390;-71
2024/03/06 13:14:00;;;;;;;;;;;19.90;53.50;;;;;;5039859;28;1487;-72
2024/03/06 13:16:26;;;;;;;;;;;19.80;52.00;;;;;;5038899;28;1979;-72
2024/03/06 13:18:53;;;;;;;;;;;19.80;50.90;;;;;;5037129;28;1101;-72
2024/03/06 13:21:19;;;;;;;;;;;19.70;50.10;;;;;;5039650;28;988;-73
2024/03/06 13:23:45;;;;;;;;;;;19.70;49.30;;;;;;5040478;28;1574;-72
2024/03/06 13:26:10;;;;;;;;;;;19.60;49.70;;;;;;5042439;28;895;-72
2024/03/06 13:28:35;;;;;;;;;;;19.50;49.30;;;;;;5040168;28;1385;-72
2024/03/06 13:31:01;;;;;;;;;;;19.50;49.20;;;;;;5038452;28;1005;-72
2024/03/06 13:33:27;;;;;;;;;;;19.50;48.90;;;;;;5037954;28;1671;-70
2024/03/06 13:35:54;;;;;;;;;;;19.40;48.30;;;;;;5037833;28;1894;-73
2024/03/06 13:38:19;;;;;;;;;;;19.40;47.40;;;;;;5036699;28;2005;-72
2024/03/06 13:40:45;;;;;;;;;;;19.40;47.10;;;;;;5037996;28;1181;-72
2024/03/06 13:43:10;;;;;;;;;;;19.30;46.40;;;;;;5037832;28;1592;-73
2024/03/06 13:45:37;;;;;;;;;;;19.30;45.90;;;;;;5041852;28;1447;-73
2024/03/06 13:48:02;;;;;;;;;;;19.20;46.30;;;;;;5037664;28;1143;-73
2024/03/06 13:50:29;;;;;;;;;;;19.20;45.50;;;;;;5038332;28;1533;-73
2024/03/06 13:52:54;;;;;;;;;;;19.20;45.20;;;;;;5041590;28;1460;-73
2024/03/06 13:55:20;;;;;;;;;;;19.10;45.90;;;;;;5041774;28;2008;-71
2024/03/06 13:57:46;;;;;;;;;;;19.10;45.70;;;;;;5038768;28;1389;-72
2024/03/06 14:00:12;;;;;;;;;;;19.10;46.00;;;;;;5034875;28;1247;-73
2024/03/06 14:02:41;;;;;;;;;;;19.00;45.80;;;;;;5039090;28;1396;-73
2024/03/06 14:05:06;;;;;;;;;;;19.00;45.70;;;;;;5039155;28;1703;-72
2024/03/06 14:07:33;;;;;;;;;;;19.00;45.40;;;;;;5037448;28;1327;-72
2024/03/06 14:09:59;;;;;;;;;;;19.00;44.70;;;;;;5038055;28;1140;-73
2024/03/06 14:12:24;;;;;;;;;;;18.90;44.80;;;;;;5038647;28;1426;-72
2024/03/06 14:14:50;;;;;;;;;;;18.90;45.10;;;;;;5038555;28;1245;-72
2024/03/06 14:17:15;;;;;;;;;;;18.90;44.90;;;;;;5038227;28;1981;-73
2024/03/06 14:19:41;;;;;;;;;;;18.80;44.90;;;;;;5039063;28;1459;-72
2024/03/06 14:22:07;;;;;;;;;;;18.80;45.20;;;;;;5038390;28;1359;-72
2024/03/06 14:24:33;;;;;;;;;;;18.80;45.60;;;;;;5036866;28;1195;-72